sensor_id;sensor_type;location;lat;lon;timestamp;temperature;humidity
37678;DHT22;23517;50.390;8.616;2024-02-26T00:01:10;4.90;99.90
37678;DHT22;23517;50.390;8.616;2024-02-26T00:03:37;4.90;13.80
37678;DHT22;23517;50.390;8.616;2024-02-26T00:06:04;4.90;1.00
37678;DHT22;23517;50.390;8.616;2024-02-26T00:08:31;4.90;1.00
37678;DHT22;23517;50.390;8.616;2024-02-26T00:10:57;4.90;1.00
37678;DHT22;23517;50.390;8.616;2024-02-26T00:13:24;5.00;1.00
37678;DHT22;23517;50.390;8.616;2024-02-26T00:15:51;5.00;1.00
37678;DHT22;23517;50.390;8.616;2024-02-26T00:18:17;5.00;1.00
37678;DHT22;23517;50.390;8.616;2024-02-26T00:20:44;5.00;1.00
37678;DHT22;23517;50.390;8.616;2024-02-26T00:23:15;5.00;1.00
37678;DHT22;23517;50.390;8.616;2024-02-26T00:25:42;5.10;1.00
37678;DHT22;23517;50.390;8.616;2024-02-26T00:28:11;5.10;1.00
37678;DHT22;23517;50.390;8.616;2024-02-26T00:30:39;5.10;1.00
37678;DHT22;23517;50.390;8.616;2024-02-26T00:33:06;5.10;1.00
37678;DHT22;23517;50.390;8.616;2024-02-26T00:35:33;5.10;1.00
37678;DHT22;23517;50.390;8.616;2024-02-26T00:38:00;5.10;1.00
37678;DHT22;23517;50.390;8.616;2024-02-26T00:40:28;5.10;99.90
37678;DHT22;23517;50.390;8.616;2024-02-26T00:42:55;5.10;1.40
37678;DHT22;23517;50.390;8.616;2024-02-26T00:45:22;5.10;99.90
37678;DHT22;23517;50.390;8.616;2024-02-26T00:47:49;5.10;99.90
37678;DHT22;23517;50.390;8.616;2024-02-26T00:50:16;5.10;1.00
37678;DHT22;23517;50.390;8.616;2024-02-26T00:52:43;5.10;1.00
37678;DHT22;23517;50.390;8.616;2024-02-26T00:55:10;5.10;1.00
37678;DHT22;23517;50.390;8.616;2024-02-26T00:57:36;5.50;1.00
37678;DHT22;23517;50.390;8.616;2024-02-26T01:00:04;5.10;1.00
37678;DHT22;23517;50.390;8.616;2024-02-26T01:02:31;5.10;1.00
37678;DHT22;23517;50.390;8.616;2024-02-26T01:04:58;5.10;1.00
37678;DHT22;23517;50.390;8.616;2024-02-26T01:07:25;5.10;1.00
37678;DHT22;23517;50.390;8.616;2024-02-26T01:09:51;5.20;1.00
37678;DHT22;23517;50.390;8.616;2024-02-26T01:12:18;5.20;1.00
37678;DHT22;23517;50.390;8.616;2024-02-26T01:14:45;5.20;1.00
37678;DHT22;23517;50.390;8.616;2024-02-26T01:17:12;5.20;1.00
37678;DHT22;23517;50.390;8.616;2024-02-26T01:19:38;5.20;1.00
37678;DHT22;23517;50.390;8.616;2024-02-26T01:22:05;5.10;1.00
37678;DHT22;23517;50.390;8.616;2024-02-26T01:24:32;5.20;1.00
37678;DHT22;23517;50.390;8.616;2024-02-26T01:26:58;5.20;1.00
37678;DHT22;23517;50.390;8.616;2024-02-26T01:29:25;5.20;99.90
37678;DHT22;23517;50.390;8.616;2024-02-26T01:31:52;5.20;25.50
37678;DHT22;23517;50.390;8.616;2024-02-26T01:34:21;5.20;79.30
37678;DHT22;23517;50.390;8.616;2024-02-26T01:36:48;5.20;99.90
37678;DHT22;23517;50.390;8.616;2024-02-26T01:39:14;5.20;99.90
37678;DHT22;23517;50.390;8.616;2024-02-26T01:41:41;5.20;99.90
37678;DHT22;23517;50.390;8.616;2024-02-26T01:44:12;5.20;1.00
37678;DHT22;23517;50.390;8.616;2024-02-26T01:46:39;5.30;99.90
37678;DHT22;23517;50.390;8.616;2024-02-26T01:49:06;5.30;99.90
37678;DHT22;23517;50.390;8.616;2024-02-26T01:51:37;5.20;99.90
37678;DHT22;23517;50.390;8.616;2024-02-26T01:54:07;5.20;99.90
37678;DHT22;23517;50.390;8.616;2024-02-26T01:56:36;5.20;99.90
37678;DHT22;23517;50.390;8.616;2024-02-26T01:59:05;5.20;99.90
37678;DHT22;23517;50.390;8.616;2024-02-26T02:01:33;5.20;99.90
37678;DHT22;23517;50.390;8.616;2024-02-26T02:04:00;5.30;10.10
37678;DHT22;23517;50.390;8.616;2024-02-26T02:06:28;5.30;1.00
37678;DHT22;23517;50.390;8.616;2024-02-26T02:08:55;5.30;1.00
37678;DHT22;23517;50.390;8.616;2024-02-26T02:11:21;5.40;1.00
37678;DHT22;23517;50.390;8.616;2024-02-26T02:13:48;5.40;1.00
37678;DHT22;23517;50.390;8.616;2024-02-26T02:16:15;5.50;99.90
37678;DHT22;23517;50.390;8.616;2024-02-26T02:18:42;5.50;99.90
37678;DHT22;23517;50.390;8.616;2024-02-26T02:21:08;5.50;99.90
37678;DHT22;23517;50.390;8.616;2024-02-26T02:23:35;5.60;99.90
37678;DHT22;23517;50.390;8.616;2024-02-26T02:26:02;5.60;99.90
37678;DHT22;23517;50.390;8.616;2024-02-26T02:28:29;5.60;99.90
37678;DHT22;23517;50.390;8.616;2024-02-26T02:30:57;5.70;99.90
37678;DHT22;23517;50.390;8.616;2024-02-26T02:33:25;5.70;99.90
37678;DHT22;23517;50.390;8.616;2024-02-26T02:35:53;5.80;99.90
37678;DHT22;23517;50.390;8.616;2024-02-26T02:38:21;5.80;99.90
37678;DHT22;23517;50.390;8.616;2024-02-26T02:40:52;5.80;99.90
37678;DHT22;23517;50.390;8.616;2024-02-26T02:43:19;5.80;60.50
37678;DHT22;23517;50.390;8.616;2024-02-26T02:45:46;5.80;50.00
37678;DHT22;23517;50.390;8.616;2024-02-26T02:48:12;5.80;47.00
37678;DHT22;23517;50.390;8.616;2024-02-26T02:50:39;5.90;1.00
37678;DHT22;23517;50.390;8.616;2024-02-26T02:53:06;5.90;1.00
37678;DHT22;23517;50.390;8.616;2024-02-26T02:55:33;5.90;1.00
37678;DHT22;23517;50.390;8.616;2024-02-26T02:58:00;5.90;1.00
37678;DHT22;23517;50.390;8.616;2024-02-26T03:00:26;5.90;1.00
37678;DHT22;23517;50.390;8.616;2024-02-26T03:02:53;5.90;1.00
37678;DHT22;23517;50.390;8.616;2024-02-26T03:05:20;5.90;1.00
37678;DHT22;23517;50.390;8.616;2024-02-26T03:07:48;5.90;1.00
37678;DHT22;23517;50.390;8.616;2024-02-26T03:10:15;5.90;1.00
37678;DHT22;23517;50.390;8.616;2024-02-26T03:12:42;5.90;1.00
37678;DHT22;23517;50.390;8.616;2024-02-26T03:15:09;5.90;1.00
37678;DHT22;23517;50.390;8.616;2024-02-26T03:17:38;5.80;1.00
37678;DHT22;23517;50.390;8.616;2024-02-26T03:20:05;5.80;8.50
37678;DHT22;23517;50.390;8.616;2024-02-26T03:22:35;5.70;38.60
37678;DHT22;23517;50.390;8.616;2024-02-26T03:25:02;5.70;68.10
37678;DHT22;23517;50.390;8.616;2024-02-26T03:27:28;5.70;99.90
37678;DHT22;23517;50.390;8.616;2024-02-26T03:29:55;5.70;99.90
37678;DHT22;23517;50.390;8.616;2024-02-26T03:32:22;5.60;99.90
37678;DHT22;23517;50.390;8.616;2024-02-26T03:34:48;5.60;99.90
37678;DHT22;23517;50.390;8.616;2024-02-26T03:37:15;5.50;99.90
37678;DHT22;23517;50.390;8.616;2024-02-26T03:39:43;5.50;99.90
37678;DHT22;23517;50.390;8.616;2024-02-26T03:42:09;5.50;99.90
37678;DHT22;23517;50.390;8.616;2024-02-26T03:44:36;5.50;99.90
37678;DHT22;23517;50.390;8.616;2024-02-26T03:47:03;5.50;99.90
37678;DHT22;23517;50.390;8.616;2024-02-26T03:49:30;5.60;1.00
37678;DHT22;23517;50.390;8.616;2024-02-26T03:51:57;5.50;1.00
37678;DHT22;23517;50.390;8.616;2024-02-26T03:54:23;5.50;1.00
37678;DHT22;23517;50.390;8.616;2024-02-26T03:56:50;5.50;1.00
37678;DHT22;23517;50.390;8.616;2024-02-26T03:59:17;5.50;1.00
37678;DHT22;23517;50.390;8.616;2024-02-26T04:01:46;5.50;1.00
37678;DHT22;23517;50.390;8.616;2024-02-26T04:04:13;5.50;1.00
37678;DHT22;23517;50.390;8.616;2024-02-26T04:06:44;5.50;1.00
37678;DHT22;23517;50.390;8.616;2024-02-26T04:09:16;5.50;1.00
37678;DHT22;23517;50.390;8.616;2024-02-26T04:11:42;5.40;1.00
37678;DHT22;23517;50.390;8.616;2024-02-26T04:14:10;5.40;1.00
37678;DHT22;23517;50.390;8.616;2024-02-26T04:16:38;5.40;54.50
37678;DHT22;23517;50.390;8.616;2024-02-26T04:19:05;5.40;84.90
37678;DHT22;23517;50.390;8.616;2024-02-26T04:21:34;5.50;99.90
37678;DHT22;23517;50.390;8.616;2024-02-26T04:24:01;5.50;99.90
37678;DHT22;23517;50.390;8.616;2024-02-26T04:26:30;5.40;99.90
37678;DHT22;23517;50.390;8.616;2024-02-26T04:28:57;5.40;99.90
37678;DHT22;23517;50.390;8.616;2024-02-26T04:31:23;5.30;99.90
37678;DHT22;23517;50.390;8.616;2024-02-26T04:33:50;5.30;99.90
37678;DHT22;23517;50.390;8.616;2024-02-26T04:36:17;5.30;99.90
37678;DHT22;23517;50.390;8.616;2024-02-26T04:38:44;5.40;99.90
37678;DHT22;23517;50.390;8.616;2024-02-26T04:41:11;5.30;1.00
37678;DHT22;23517;50.390;8.616;2024-02-26T04:43:38;5.30;1.00
37678;DHT22;23517;50.390;8.616;2024-02-26T04:46:08;5.30;99.90
37678;DHT22;23517;50.390;8.616;2024-02-26T04:48:38;5.30;99.90
37678;DHT22;23517;50.390;8.616;2024-02-26T04:51:06;5.20;1.00
37678;DHT22;23517;50.390;8.616;2024-02-26T04:53:32;5.30;1.00
37678;DHT22;23517;50.390;8.616;2024-02-26T04:55:59;5.30;1.00
37678;DHT22;23517;50.390;8.616;2024-02-26T04:58:26;5.30;1.00
37678;DHT22;23517;50.390;8.616;2024-02-26T05:00:52;5.30;1.00
37678;DHT22;23517;50.390;8.616;2024-02-26T05:03:19;5.30;1.00
37678;DHT22;23517;50.390;8.616;2024-02-26T05:05:46;5.30;1.00
37678;DHT22;23517;50.390;8.616;2024-02-26T05:08:13;5.30;1.00
37678;DHT22;23517;50.390;8.616;2024-02-26T05:10:39;5.30;99.90
37678;DHT22;23517;50.390;8.616;2024-02-26T05:13:07;5.30;99.90
37678;DHT22;23517;50.390;8.616;2024-02-26T05:15:35;5.30;99.90
37678;DHT22;23517;50.390;8.616;2024-02-26T05:18:02;5.20;99.90
37678;DHT22;23517;50.390;8.616;2024-02-26T05:20:30;5.20;99.90
37678;DHT22;23517;50.390;8.616;2024-02-26T05:22:57;5.20;99.90
37678;DHT22;23517;50.390;8.616;2024-02-26T05:25:25;5.20;99.90
37678;DHT22;23517;50.390;8.616;2024-02-26T05:27:52;5.20;1.00
37678;DHT22;23517;50.390;8.616;2024-02-26T05:30:18;5.20;1.00
37678;DHT22;23517;50.390;8.616;2024-02-26T05:32:45;5.30;1.00
37678;DHT22;23517;50.390;8.616;2024-02-26T05:35:12;5.30;1.00
37678;DHT22;23517;50.390;8.616;2024-02-26T05:37:39;5.30;1.00
37678;DHT22;23517;50.390;8.616;2024-02-26T05:40:06;5.30;1.00
37678;DHT22;23517;50.390;8.616;2024-02-26T05:42:33;5.30;1.00
37678;DHT22;23517;50.390;8.616;2024-02-26T05:45:00;5.30;99.90
37678;DHT22;23517;50.390;8.616;2024-02-26T05:47:33;5.30;99.90
37678;DHT22;23517;50.390;8.616;2024-02-26T05:50:00;5.20;99.90
37678;DHT22;23517;50.390;8.616;2024-02-26T05:52:27;5.30;99.90
37678;DHT22;23517;50.390;8.616;2024-02-26T05:54:56;5.20;99.90
37678;DHT22;23517;50.390;8.616;2024-02-26T05:57:22;5.20;99.90
37678;DHT22;23517;50.390;8.616;2024-02-26T05:59:49;5.20;99.90
37678;DHT22;23517;50.390;8.616;2024-02-26T06:02:16;5.10;1.00
37678;DHT22;23517;50.390;8.616;2024-02-26T06:04:43;5.20;99.90
37678;DHT22;23517;50.390;8.616;2024-02-26T06:07:09;5.10;1.00
37678;DHT22;23517;50.390;8.616;2024-02-26T06:09:36;5.10;1.00
37678;DHT22;23517;50.390;8.616;2024-02-26T06:12:03;5.10;99.90
37678;DHT22;23517;50.390;8.616;2024-02-26T06:14:30;5.10;1.00
37678;DHT22;23517;50.390;8.616;2024-02-26T06:16:57;5.20;1.00
37678;DHT22;23517;50.390;8.616;2024-02-26T06:19:24;5.20;1.00
37678;DHT22;23517;50.390;8.616;2024-02-26T06:21:51;5.20;1.00
37678;DHT22;23517;50.390;8.616;2024-02-26T06:24:17;5.30;1.00
37678;DHT22;23517;50.390;8.616;2024-02-26T06:26:44;5.30;1.00
37678;DHT22;23517;50.390;8.616;2024-02-26T06:29:11;5.30;1.00
37678;DHT22;23517;50.390;8.616;2024-02-26T06:31:37;5.30;99.90
37678;DHT22;23517;50.390;8.616;2024-02-26T06:34:04;5.30;99.90
37678;DHT22;23517;50.390;8.616;2024-02-26T06:36:31;5.30;99.90
37678;DHT22;23517;50.390;8.616;2024-02-26T06:38:58;5.30;99.90
37678;DHT22;23517;50.390;8.616;2024-02-26T06:41:25;5.20;1.00
37678;DHT22;23517;50.390;8.616;2024-02-26T06:43:54;5.20;1.00
37678;DHT22;23517;50.390;8.616;2024-02-26T06:46:22;5.20;1.00
37678;DHT22;23517;50.390;8.616;2024-02-26T06:48:49;5.20;1.00
37678;DHT22;23517;50.390;8.616;2024-02-26T06:51:20;5.20;1.00
37678;DHT22;23517;50.390;8.616;2024-02-26T06:53:48;5.20;1.00
37678;DHT22;23517;50.390;8.616;2024-02-26T06:56:15;5.10;1.00
37678;DHT22;23517;50.390;8.616;2024-02-26T06:58:42;5.10;99.90
37678;DHT22;23517;50.390;8.616;2024-02-26T07:01:08;5.20;99.90
37678;DHT22;23517;50.390;8.616;2024-02-26T07:03:36;5.20;99.90
37678;DHT22;23517;50.390;8.616;2024-02-26T07:06:03;5.20;99.90
37678;DHT22;23517;50.390;8.616;2024-02-26T07:08:31;5.20;99.90
37678;DHT22;23517;50.390;8.616;2024-02-26T07:10:57;5.10;99.90
37678;DHT22;23517;50.390;8.616;2024-02-26T07:13:24;5.20;99.90
37678;DHT22;23517;50.390;8.616;2024-02-26T07:15:51;5.20;99.90
37678;DHT22;23517;50.390;8.616;2024-02-26T07:18:17;5.30;1.00
37678;DHT22;23517;50.390;8.616;2024-02-26T07:20:44;5.30;14.10
37678;DHT22;23517;50.390;8.616;2024-02-26T07:23:11;5.30;87.50
37678;DHT22;23517;50.390;8.616;2024-02-26T07:25:39;5.40;6.50
37678;DHT22;23517;50.390;8.616;2024-02-26T07:28:06;5.40;1.00
37678;DHT22;23517;50.390;8.616;2024-02-26T07:30:33;5.40;1.00
37678;DHT22;23517;50.390;8.616;2024-02-26T07:33:00;5.40;1.00
37678;DHT22;23517;50.390;8.616;2024-02-26T07:35:26;5.40;66.40
37678;DHT22;23517;50.390;8.616;2024-02-26T07:37:54;5.50;35.60
37678;DHT22;23517;50.390;8.616;2024-02-26T07:40:21;5.50;99.90
37678;DHT22;23517;50.390;8.616;2024-02-26T07:42:48;5.50;99.90
37678;DHT22;23517;50.390;8.616;2024-02-26T07:45:15;5.50;12.70
37678;DHT22;23517;50.390;8.616;2024-02-26T07:47:42;5.60;99.90
37678;DHT22;23517;50.390;8.616;2024-02-26T07:50:10;5.60;81.80
37678;DHT22;23517;50.390;8.616;2024-02-26T07:52:44;5.60;67.70
37678;DHT22;23517;50.390;8.616;2024-02-26T07:55:11;5.70;58.50
37678;DHT22;23517;50.390;8.616;2024-02-26T07:57:42;5.70;81.60
37678;DHT22;23517;50.390;8.616;2024-02-26T08:00:10;5.80;1.00
37678;DHT22;23517;50.390;8.616;2024-02-26T08:02:37;5.80;1.00
37678;DHT22;23517;50.390;8.616;2024-02-26T08:05:04;5.90;1.00
37678;DHT22;23517;50.390;8.616;2024-02-26T08:07:31;5.90;24.00
37678;DHT22;23517;50.390;8.616;2024-02-26T08:09:58;5.90;39.20
37678;DHT22;23517;50.390;8.616;2024-02-26T08:12:25;6.00;99.90
37678;DHT22;23517;50.390;8.616;2024-02-26T08:14:52;6.00;1.00
37678;DHT22;23517;50.390;8.616;2024-02-26T08:17:19;6.00;27.90
37678;DHT22;23517;50.390;8.616;2024-02-26T08:19:45;6.00;21.40
37678;DHT22;23517;50.390;8.616;2024-02-26T08:22:12;6.00;1.00
37678;DHT22;23517;50.390;8.616;2024-02-26T08:24:42;6.00;1.00
37678;DHT22;23517;50.390;8.616;2024-02-26T08:27:09;6.10;1.00
37678;DHT22;23517;50.390;8.616;2024-02-26T08:29:36;6.10;1.00
37678;DHT22;23517;50.390;8.616;2024-02-26T08:32:03;6.00;1.00
37678;DHT22;23517;50.390;8.616;2024-02-26T08:34:30;6.10;1.00
37678;DHT22;23517;50.390;8.616;2024-02-26T08:36:57;6.10;1.00
37678;DHT22;23517;50.390;8.616;2024-02-26T08:39:23;6.20;1.00
37678;DHT22;23517;50.390;8.616;2024-02-26T08:41:50;6.30;1.00
37678;DHT22;23517;50.390;8.616;2024-02-26T08:44:17;6.30;1.00
37678;DHT22;23517;50.390;8.616;2024-02-26T08:46:45;6.40;1.00
37678;DHT22;23517;50.390;8.616;2024-02-26T08:49:12;6.50;1.00
37678;DHT22;23517;50.390;8.616;2024-02-26T08:51:42;6.50;1.00
37678;DHT22;23517;50.390;8.616;2024-02-26T08:54:10;6.60;1.00
37678;DHT22;23517;50.390;8.616;2024-02-26T08:56:37;6.60;99.90
37678;DHT22;23517;50.390;8.616;2024-02-26T08:59:04;6.70;99.90
37678;DHT22;23517;50.390;8.616;2024-02-26T09:01:33;6.70;99.90
37678;DHT22;23517;50.390;8.616;2024-02-26T09:04:00;6.80;99.90
37678;DHT22;23517;50.390;8.616;2024-02-26T09:06:28;6.80;99.90
37678;DHT22;23517;50.390;8.616;2024-02-26T09:08:56;6.80;1.00
37678;DHT22;23517;50.390;8.616;2024-02-26T09:11:27;6.70;1.00
37678;DHT22;23517;50.390;8.616;2024-02-26T09:13:53;6.70;1.00
37678;DHT22;23517;50.390;8.616;2024-02-26T09:16:20;6.70;99.90
37678;DHT22;23517;50.390;8.616;2024-02-26T09:18:47;6.80;99.90
37678;DHT22;23517;50.390;8.616;2024-02-26T09:21:14;6.90;99.90
37678;DHT22;23517;50.390;8.616;2024-02-26T09:23:41;7.10;49.60
37678;DHT22;23517;50.390;8.616;2024-02-26T09:26:08;7.20;1.00
37678;DHT22;23517;50.390;8.616;2024-02-26T09:28:35;7.20;1.00
37678;DHT22;23517;50.390;8.616;2024-02-26T09:31:04;7.20;99.90
37678;DHT22;23517;50.390;8.616;2024-02-26T09:33:33;7.30;99.90
37678;DHT22;23517;50.390;8.616;2024-02-26T09:36:00;7.30;99.90
37678;DHT22;23517;50.390;8.616;2024-02-26T09:38:29;7.30;99.90
37678;DHT22;23517;50.390;8.616;2024-02-26T09:41:02;7.40;1.00
37678;DHT22;23517;50.390;8.616;2024-02-26T09:43:35;7.40;99.90
37678;DHT22;23517;50.390;8.616;2024-02-26T09:46:08;7.40;99.90
37678;DHT22;23517;50.390;8.616;2024-02-26T09:48:35;7.50;99.90
37678;DHT22;23517;50.390;8.616;2024-02-26T09:51:04;7.50;99.90
37678;DHT22;23517;50.390;8.616;2024-02-26T09:53:32;7.60;99.90
37678;DHT22;23517;50.390;8.616;2024-02-26T09:55:58;7.70;38.60
37678;DHT22;23517;50.390;8.616;2024-02-26T09:58:28;7.90;50.20
37678;DHT22;23517;50.390;8.616;2024-02-26T10:01:00;8.10;1.00
37678;DHT22;23517;50.390;8.616;2024-02-26T10:03:34;8.10;1.00
37678;DHT22;23517;50.390;8.616;2024-02-26T10:06:06;8.20;1.00
37678;DHT22;23517;50.390;8.616;2024-02-26T10:08:36;8.30;1.00
37678;DHT22;23517;50.390;8.616;2024-02-26T10:11:07;8.40;99.90
37678;DHT22;23517;50.390;8.616;2024-02-26T10:13:37;8.30;99.90
37678;DHT22;23517;50.390;8.616;2024-02-26T10:16:04;8.30;1.00
37678;DHT22;23517;50.390;8.616;2024-02-26T10:18:48;8.30;99.90
37678;DHT22;23517;50.390;8.616;2024-02-26T10:21:22;8.40;99.90
37678;DHT22;23517;50.390;8.616;2024-02-26T10:23:49;8.40;99.90
37678;DHT22;23517;50.390;8.616;2024-02-26T10:26:20;8.40;99.90
37678;DHT22;23517;50.390;8.616;2024-02-26T10:28:47;8.40;99.90
37678;DHT22;23517;50.390;8.616;2024-02-26T10:31:19;8.60;99.90
37678;DHT22;23517;50.390;8.616;2024-02-26T10:33:46;8.60;99.90
37678;DHT22;23517;50.390;8.616;2024-02-26T10:36:13;8.70;99.90
37678;DHT22;23517;50.390;8.616;2024-02-26T10:38:40;8.80;99.90
37678;DHT22;23517;50.390;8.616;2024-02-26T10:41:07;8.80;99.90
37678;DHT22;23517;50.390;8.616;2024-02-26T10:43:39;8.90;99.90
37678;DHT22;23517;50.390;8.616;2024-02-26T10:46:07;9.00;99.90
37678;DHT22;23517;50.390;8.616;2024-02-26T10:48:35;9.10;99.90
37678;DHT22;23517;50.390;8.616;2024-02-26T10:51:02;9.40;99.90
37678;DHT22;23517;50.390;8.616;2024-02-26T10:53:31;9.50;99.90
37678;DHT22;23517;50.390;8.616;2024-02-26T10:56:04;9.50;99.90
37678;DHT22;23517;50.390;8.616;2024-02-26T10:58:32;9.40;99.90
37678;DHT22;23517;50.390;8.616;2024-02-26T11:01:00;9.30;99.90
37678;DHT22;23517;50.390;8.616;2024-02-26T11:03:28;9.20;99.90
37678;DHT22;23517;50.390;8.616;2024-02-26T11:05:58;9.10;99.90
37678;DHT22;23517;50.390;8.616;2024-02-26T11:08:27;9.10;99.90
37678;DHT22;23517;50.390;8.616;2024-02-26T11:10:56;9.10;99.90
37678;DHT22;23517;50.390;8.616;2024-02-26T11:13:27;9.20;99.90
37678;DHT22;23517;50.390;8.616;2024-02-26T11:15:56;9.30;99.90
37678;DHT22;23517;50.390;8.616;2024-02-26T11:18:27;9.30;99.90
37678;DHT22;23517;50.390;8.616;2024-02-26T11:20:54;9.50;99.90
37678;DHT22;23517;50.390;8.616;2024-02-26T11:23:24;9.50;99.90
37678;DHT22;23517;50.390;8.616;2024-02-26T11:25:55;9.50;99.90
37678;DHT22;23517;50.390;8.616;2024-02-26T11:28:24;9.30;61.00
37678;DHT22;23517;50.390;8.616;2024-02-26T11:30:51;9.20;97.20
37678;DHT22;23517;50.390;8.616;2024-02-26T11:33:19;9.10;99.90
37678;DHT22;23517;50.390;8.616;2024-02-26T11:35:47;9.00;99.90
37678;DHT22;23517;50.390;8.616;2024-02-26T11:38:20;9.00;99.90
37678;DHT22;23517;50.390;8.616;2024-02-26T11:40:50;9.20;99.90
37678;DHT22;23517;50.390;8.616;2024-02-26T11:43:18;9.30;99.90
37678;DHT22;23517;50.390;8.616;2024-02-26T11:45:49;9.30;99.90
37678;DHT22;23517;50.390;8.616;2024-02-26T11:48:22;9.30;99.90
37678;DHT22;23517;50.390;8.616;2024-02-26T11:50:52;9.30;99.90
37678;DHT22;23517;50.390;8.616;2024-02-26T11:53:28;9.20;99.90
37678;DHT22;23517;50.390;8.616;2024-02-26T11:59:05;9.20;99.90
37678;DHT22;23517;50.390;8.616;2024-02-26T12:01:46;9.20;99.90
37678;DHT22;23517;50.390;8.616;2024-02-26T12:04:21;9.30;99.90
37678;DHT22;23517;50.390;8.616;2024-02-26T12:06:55;9.30;99.90
37678;DHT22;23517;50.390;8.616;2024-02-26T12:09:38;9.20;99.90
37678;DHT22;23517;50.390;8.616;2024-02-26T12:12:10;9.20;99.90
37678;DHT22;23517;50.390;8.616;2024-02-26T12:14:40;9.00;99.90
37678;DHT22;23517;50.390;8.616;2024-02-26T12:17:22;8.90;99.90
37678;DHT22;23517;50.390;8.616;2024-02-26T12:19:52;9.00;99.90
37678;DHT22;23517;50.390;8.616;2024-02-26T12:22:20;9.10;1.00
37678;DHT22;23517;50.390;8.616;2024-02-26T12:24:46;9.10;99.90
37678;DHT22;23517;50.390;8.616;2024-02-26T12:27:13;9.10;99.90
37678;DHT22;23517;50.390;8.616;2024-02-26T12:29:41;9.10;1.00
37678;DHT22;23517;50.390;8.616;2024-02-26T12:32:08;9.20;1.00
37678;DHT22;23517;50.390;8.616;2024-02-26T12:34:35;9.30;99.90
37678;DHT22;23517;50.390;8.616;2024-02-26T12:37:02;9.50;99.90
37678;DHT22;23517;50.390;8.616;2024-02-26T12:39:29;9.60;99.90
37678;DHT22;23517;50.390;8.616;2024-02-26T12:41:58;9.80;99.90
37678;DHT22;23517;50.390;8.616;2024-02-26T12:44:26;9.90;99.90
37678;DHT22;23517;50.390;8.616;2024-02-26T12:47:03;10.20;99.90
37678;DHT22;23517;50.390;8.616;2024-02-26T12:49:31;10.40;99.90
37678;DHT22;23517;50.390;8.616;2024-02-26T12:51:59;10.80;99.90
37678;DHT22;23517;50.390;8.616;2024-02-26T12:54:33;11.20;99.90
37678;DHT22;23517;50.390;8.616;2024-02-26T12:57:01;11.40;16.20
37678;DHT22;23517;50.390;8.616;2024-02-26T12:59:30;11.30;1.00
37678;DHT22;23517;50.390;8.616;2024-02-26T13:01:57;11.40;1.00
37678;DHT22;23517;50.390;8.616;2024-02-26T13:04:26;11.40;1.00
37678;DHT22;23517;50.390;8.616;2024-02-26T13:06:58;11.20;1.00
37678;DHT22;23517;50.390;8.616;2024-02-26T13:09:34;11.10;1.00
37678;DHT22;23517;50.390;8.616;2024-02-26T13:12:04;11.10;1.00
37678;DHT22;23517;50.390;8.616;2024-02-26T13:14:32;11.00;1.00
37678;DHT22;23517;50.390;8.616;2024-02-26T13:17:01;10.80;1.00
37678;DHT22;23517;50.390;8.616;2024-02-26T13:19:28;10.90;1.00
37678;DHT22;23517;50.390;8.616;2024-02-26T13:21:55;10.90;1.00
37678;DHT22;23517;50.390;8.616;2024-02-26T13:24:22;11.10;1.00
37678;DHT22;23517;50.390;8.616;2024-02-26T13:26:55;11.20;1.00
37678;DHT22;23517;50.390;8.616;2024-02-26T13:29:22;11.20;1.00
37678;DHT22;23517;50.390;8.616;2024-02-26T13:32:02;11.10;1.00
37678;DHT22;23517;50.390;8.616;2024-02-26T13:34:30;11.10;1.00
37678;DHT22;23517;50.390;8.616;2024-02-26T13:36:58;11.00;1.00
37678;DHT22;23517;50.390;8.616;2024-02-26T13:39:26;11.00;1.00
37678;DHT22;23517;50.390;8.616;2024-02-26T13:41:54;11.10;1.00
37678;DHT22;23517;50.390;8.616;2024-02-26T13:44:21;11.10;1.00
37678;DHT22;23517;50.390;8.616;2024-02-26T13:46:49;11.20;1.00
37678;DHT22;23517;50.390;8.616;2024-02-26T13:49:16;11.30;1.00
37678;DHT22;23517;50.390;8.616;2024-02-26T13:51:43;11.20;1.00
37678;DHT22;23517;50.390;8.616;2024-02-26T13:54:10;11.10;1.00
37678;DHT22;23517;50.390;8.616;2024-02-26T13:56:37;11.10;1.00
37678;DHT22;23517;50.390;8.616;2024-02-26T13:59:04;11.20;1.00
37678;DHT22;23517;50.390;8.616;2024-02-26T14:01:31;11.10;1.00
37678;DHT22;23517;50.390;8.616;2024-02-26T14:04:00;11.10;1.00
37678;DHT22;23517;50.390;8.616;2024-02-26T14:06:28;11.00;1.00
37678;DHT22;23517;50.390;8.616;2024-02-26T14:08:57;10.80;1.00
37678;DHT22;23517;50.390;8.616;2024-02-26T14:11:24;10.90;1.00
37678;DHT22;23517;50.390;8.616;2024-02-26T14:13:51;11.00;1.00
37678;DHT22;23517;50.390;8.616;2024-02-26T14:16:18;11.00;1.00
37678;DHT22;23517;50.390;8.616;2024-02-26T14:18:46;10.90;1.00
37678;DHT22;23517;50.390;8.616;2024-02-26T14:21:14;10.90;1.00
37678;DHT22;23517;50.390;8.616;2024-02-26T14:23:40;10.80;1.00
37678;DHT22;23517;50.390;8.616;2024-02-26T14:26:09;10.80;1.00
37678;DHT22;23517;50.390;8.616;2024-02-26T14:28:35;10.70;1.00
37678;DHT22;23517;50.390;8.616;2024-02-26T14:33:32;10.50;1.00
37678;DHT22;23517;50.390;8.616;2024-02-26T14:35:59;10.40;1.00
37678;DHT22;23517;50.390;8.616;2024-02-26T14:38:25;10.30;1.00
37678;DHT22;23517;50.390;8.616;2024-02-26T14:40:52;10.20;1.00
37678;DHT22;23517;50.390;8.616;2024-02-26T14:43:19;10.20;1.00
37678;DHT22;23517;50.390;8.616;2024-02-26T14:45:46;10.20;1.00
37678;DHT22;23517;50.390;8.616;2024-02-26T14:48:12;10.20;1.00
37678;DHT22;23517;50.390;8.616;2024-02-26T14:50:43;10.10;1.00
37678;DHT22;23517;50.390;8.616;2024-02-26T14:53:09;10.20;1.00
37678;DHT22;23517;50.390;8.616;2024-02-26T14:55:37;10.20;1.00
37678;DHT22;23517;50.390;8.616;2024-02-26T14:58:07;10.30;1.00
37678;DHT22;23517;50.390;8.616;2024-02-26T15:00:38;10.20;1.00
37678;DHT22;23517;50.390;8.616;2024-02-26T15:03:05;10.20;1.00
37678;DHT22;23517;50.390;8.616;2024-02-26T15:05:33;10.20;1.00
37678;DHT22;23517;50.390;8.616;2024-02-26T15:08:00;10.20;1.00
37678;DHT22;23517;50.390;8.616;2024-02-26T15:10:26;10.20;1.00
37678;DHT22;23517;50.390;8.616;2024-02-26T15:12:55;10.20;1.00
37678;DHT22;23517;50.390;8.616;2024-02-26T15:15:22;10.20;1.00
37678;DHT22;23517;50.390;8.616;2024-02-26T15:17:49;10.20;1.00
37678;DHT22;23517;50.390;8.616;2024-02-26T15:20:17;10.10;1.00
37678;DHT22;23517;50.390;8.616;2024-02-26T15:22:44;10.10;1.00
37678;DHT22;23517;50.390;8.616;2024-02-26T15:25:13;10.10;1.00
37678;DHT22;23517;50.390;8.616;2024-02-26T15:27:41;10.10;1.00
37678;DHT22;23517;50.390;8.616;2024-02-26T15:30:09;10.10;1.00
37678;DHT22;23517;50.390;8.616;2024-02-26T15:32:36;10.00;1.00
37678;DHT22;23517;50.390;8.616;2024-02-26T15:35:03;10.10;1.00
37678;DHT22;23517;50.390;8.616;2024-02-26T15:37:30;10.10;1.00
37678;DHT22;23517;50.390;8.616;2024-02-26T15:39:57;10.00;1.00
37678;DHT22;23517;50.390;8.616;2024-02-26T15:42:24;10.00;1.00
37678;DHT22;23517;50.390;8.616;2024-02-26T15:44:51;10.00;1.00
37678;DHT22;23517;50.390;8.616;2024-02-26T15:47:18;9.90;1.00
37678;DHT22;23517;50.390;8.616;2024-02-26T15:49:45;9.90;1.00
37678;DHT22;23517;50.390;8.616;2024-02-26T15:52:12;9.90;1.00
37678;DHT22;23517;50.390;8.616;2024-02-26T15:54:39;9.90;1.00
37678;DHT22;23517;50.390;8.616;2024-02-26T15:57:11;9.90;1.00
37678;DHT22;23517;50.390;8.616;2024-02-26T15:59:38;9.90;1.00
37678;DHT22;23517;50.390;8.616;2024-02-26T16:02:05;9.90;1.00